Ferrol, Spain
Current Conditions -  °F | °C
As of 11:30 AM on Saturday 25 Oct 2014 (Local Time) from LECO Reporting Station
Moderate Fog Moderate Fog  
Wind Chill: 59°   Ceiling: Unl
Heat Index: 59°   Visibility: 5mi
Dew Point: 55°   Wind: 2mph
Humidity: 88%   Direction: NA
Pressure: 30.12"   Gusts: NA
Location:  43.48°N, 8.24°W
Report Text: LECO 250930Z VRB02KT 8000 VCFG NSC 15/13 Q1020 NOSIG
Loading
Personal Weather Stations






























Interactive Weather Map
Tropical Storm Tracking
New forecast layout! Learn more

10-Day Weather Forecast

Advertisements
Track Severe Weather on mobile